Time;durP1;ratioP1;P1;durP2;ratioP2;P2;SDS_P1;SDS_P2;PMS_P1;PMS_P2;Temp;Humidity;BMP_temperature;BMP_pressure;BME280_temperature;BME280_humidity;BME280_pressure;Samples;Min_cycle;Max_cycle;Signal;HPM_P1;HPM_P2
2021/07/12 00:02:17;;;;;;;0.80;0.80;;;;;;;;;;5082716;28;20400;-52
2021/07/12 00:04:44;;;;;;;1.15;0.70;;;;;;;;;;5079769;28;20040;-50
2021/07/12 00:07:11;;;;;;;0.70;0.70;;;;;;;;;;5092498;28;20095;-51
2021/07/12 00:09:37;;;;;;;0.63;0.63;;;;;;;;;;5089016;28;20560;-51
2021/07/12 00:12:04;;;;;;;1.02;0.70;;;;;;;;;;5087970;28;20081;-51
2021/07/12 00:14:31;;;;;;;1.25;1.13;;;;;;;;;;5090500;28;20428;-51
2021/07/12 00:16:58;;;;;;;0.70;0.70;;;;;;;;;;5089736;28;20035;-51
2021/07/12 00:19:24;;;;;;;0.70;0.70;;;;;;;;;;5089976;28;20097;-51
2021/07/12 00:21:51;;;;;;;1.42;0.70;;;;;;;;;;5085802;28;20164;-51
2021/07/12 00:24:20;;;;;;;1.40;0.88;;;;;;;;;;5089254;28;20119;-51
2021/07/12 00:26:49;;;;;;;1.05;0.75;;;;;;;;;;5085516;28;20476;-52
2021/07/12 00:29:16;;;;;;;0.70;0.70;;;;;;;;;;5089671;28;20127;-49
2021/07/12 00:31:43;;;;;;;0.80;0.80;;;;;;;;;;5090558;28;20571;-51
2021/07/12 00:34:10;;;;;;;0.80;0.80;;;;;;;;;;5091190;28;20480;-52
2021/07/12 00:36:39;;;;;;;0.70;0.70;;;;;;;;;;5080847;28;20052;-50
2021/07/12 00:39:06;;;;;;;0.80;0.80;;;;;;;;;;5090138;28;20126;-50
2021/07/12 00:41:33;;;;;;;0.80;0.80;;;;;;;;;;5089231;28;20039;-50
2021/07/12 00:44:00;;;;;;;0.80;0.80;;;;;;;;;;5086136;28;20043;-51
2021/07/12 00:46:29;;;;;;;1.23;0.80;;;;;;;;;;5089589;28;20040;-49
2021/07/12 00:48:56;;;;;;;1.30;0.80;;;;;;;;;;5087157;28;20114;-51
2021/07/12 00:51:24;;;;;;;1.52;0.80;;;;;;;;;;5090161;28;20044;-50
2021/07/12 00:53:52;;;;;;;0.80;0.80;;;;;;;;;;5087187;28;20103;-50
2021/07/12 00:56:19;;;;;;;1.70;0.80;;;;;;;;;;5088234;28;20032;-49
2021/07/12 00:58:46;;;;;;;1.80;0.90;;;;;;;;;;5080638;28;20059;-51
2021/07/12 01:01:12;;;;;;;1.50;0.70;;;;;;;;;;5071757;28;20040;-48
2021/07/12 01:03:39;;;;;;;1.00;0.90;;;;;;;;;;5099752;28;20423;-51
2021/07/12 01:06:06;;;;;;;0.77;0.77;;;;;;;;;;5088748;28;20036;-51
2021/07/12 01:08:33;;;;;;;0.80;0.80;;;;;;;;;;5089045;28;20067;-49
2021/07/12 01:11:18;;;;;;;0.82;0.80;;;;;;;;;;5089822;28;20040;-51
2021/07/12 01:13:48;;;;;;;0.80;0.80;;;;;;;;;;5087838;28;20039;-51
2021/07/12 01:16:33;;;;;;;0.90;0.90;;;;;;;;;;5087833;28;20407;-48
2021/07/12 01:19:14;;;;;;;0.85;0.73;;;;;;;;;;5087639;28;20272;-49
2021/07/12 01:22:00;;;;;;;0.80;0.80;;;;;;;;;;5087555;28;20072;-47
2021/07/12 01:24:45;;;;;;;1.05;0.80;;;;;;;;;;5086813;28;20036;-52
2021/07/12 01:27:15;;;;;;;0.90;0.80;;;;;;;;;;5079223;28;20127;-49
2021/07/12 01:30:00;;;;;;;0.90;0.90;;;;;;;;;;5088058;28;20596;-49
2021/07/12 01:32:43;;;;;;;0.93;0.93;;;;;;;;;;5074126;28;20041;-50
2021/07/12 01:35:17;;;;;;;1.70;0.88;;;;;;;;;;5089297;28;20443;-49
2021/07/12 01:38:01;;;;;;;0.75;0.75;;;;;;;;;;5079307;28;20541;-49
2021/07/12 01:40:35;;;;;;;0.90;0.90;;;;;;;;;;5071270;28;20040;-50
2021/07/12 01:43:10;;;;;;;2.55;0.90;;;;;;;;;;5088355;28;20071;-51
2021/07/12 01:45:49;;;;;;;1.00;0.73;;;;;;;;;;5088769;28;20082;-50
2021/07/12 01:48:21;;;;;;;0.80;0.80;;;;;;;;;;5082842;28;20036;-50
2021/07/12 01:50:50;;;;;;;1.38;0.70;;;;;;;;;;5087816;28;20040;-52
2021/07/12 01:53:17;;;;;;;3.35;1.00;;;;;;;;;;5086950;28;21638;-50
2021/07/12 01:55:49;;;;;;;2.95;0.90;;;;;;;;;;5090614;28;20444;-50
2021/07/12 01:58:25;;;;;;;0.70;0.70;;;;;;;;;;5088888;28;20032;-50
2021/07/12 02:00:52;;;;;;;0.90;0.80;;;;;;;;;;5088948;28;20119;-51
2021/07/12 02:03:21;;;;;;;0.90;0.90;;;;;;;;;;5081292;28;20052;-49
2021/07/12 02:05:48;;;;;;;3.40;0.90;;;;;;;;;;5087763;28;20072;-51
2021/07/12 02:08:18;;;;;;;1.48;0.90;;;;;;;;;;5086057;28;20127;-50
2021/07/12 02:10:45;;;;;;;0.90;0.90;;;;;;;;;;5089552;28;20383;-50
2021/07/12 02:13:13;;;;;;;1.10;0.80;;;;;;;;;;5088389;28;20059;-47
2021/07/12 02:15:43;;;;;;;0.82;0.82;;;;;;;;;;5089173;28;20151;-49
2021/07/12 02:18:10;;;;;;;2.30;0.90;;;;;;;;;;5088956;28;20097;-51
2021/07/12 02:20:38;;;;;;;0.90;0.90;;;;;;;;;;5088644;28;20097;-50
2021/07/12 02:23:11;;;;;;;1.42;0.93;;;;;;;;;;5087191;28;20447;-51
2021/07/12 02:25:37;;;;;;;;;;;;;;;;;;5086953;28;20040;-48
2021/07/12 02:28:05;;;;;;;1.17;0.90;;;;;;;;;;5093183;28;19924;-50
2021/07/12 02:30:32;;;;;;;1.20;1.10;;;;;;;;;;5093040;28;20127;-51
2021/07/12 02:32:59;;;;;;;1.00;1.00;;;;;;;;;;5091751;28;20395;-50
2021/07/12 02:35:25;;;;;;;2.85;0.90;;;;;;;;;;5093160;28;20496;-49
2021/07/12 02:37:54;;;;;;;1.02;1.02;;;;;;;;;;5091389;28;20515;-51
2021/07/12 02:40:22;;;;;;;1.48;0.80;;;;;;;;;;5097216;28;20051;-50
2021/07/12 02:42:50;;;;;;;1.10;1.00;;;;;;;;;;5089778;28;20091;-50
2021/07/12 02:45:18;;;;;;;0.80;0.80;;;;;;;;;;5076176;28;20083;-47
2021/07/12 02:47:45;;;;;;;1.00;0.90;;;;;;;;;;5093490;28;20036;-51
2021/07/12 02:50:20;;;;;;;1.05;0.95;;;;;;;;;;5091562;28;20527;-50
2021/07/12 02:52:56;;;;;;;0.93;0.93;;;;;;;;;;5091543;28;20471;-50
2021/07/12 02:55:23;;;;;;;1.17;0.90;;;;;;;;;;5086157;28;20043;-52
2021/07/12 02:57:49;;;;;;;3.60;1.10;;;;;;;;;;5080446;28;20038;-51
2021/07/12 03:00:16;;;;;;;1.85;1.00;;;;;;;;;;5092132;28;20145;-50
2021/07/12 03:02:43;;;;;;;2.05;1.25;;;;;;;;;;5091477;28;20070;-49
2021/07/12 03:05:11;;;;;;;2.05;1.10;;;;;;;;;;5090193;28;20048;-52
2021/07/12 03:07:47;;;;;;;1.13;1.00;;;;;;;;;;5089401;28;20141;-52
2021/07/12 03:10:15;;;;;;;2.65;0.98;;;;;;;;;;5089981;28;20097;-50
2021/07/12 03:12:44;;;;;;;1.67;0.98;;;;;;;;;;5079730;28;20028;-51
2021/07/12 03:15:12;;;;;;;3.58;1.05;;;;;;;;;;5089876;28;20036;-50
2021/07/12 03:17:42;;;;;;;1.52;1.00;;;;;;;;;;5088681;28;20539;-51
2021/07/12 03:20:09;;;;;;;1.65;1.23;;;;;;;;;;5090869;28;20484;-51
2021/07/12 03:22:37;;;;;;;1.10;0.90;;;;;;;;;;5088865;28;20130;-49
2021/07/12 03:25:04;;;;;;;0.90;0.90;;;;;;;;;;5075812;28;20151;-49
2021/07/12 03:27:31;;;;;;;1.48;1.10;;;;;;;;;;5091266;28;20044;-51
2021/07/12 03:30:00;;;;;;;1.00;1.00;;;;;;;;;;5087898;28;20048;-51
2021/07/12 03:32:32;;;;;;;1.00;1.00;;;;;;;;;;5092638;28;20044;-50
2021/07/12 03:35:01;;;;;;;1.52;1.10;;;;;;;;;;5090309;28;20440;-48
2021/07/12 03:37:28;;;;;;;4.00;1.20;;;;;;;;;;5083332;28;20040;-50
2021/07/12 03:39:56;;;;;;;1.13;1.02;;;;;;;;;;5091705;28;20077;-50
2021/07/12 03:42:23;;;;;;;2.97;1.35;;;;;;;;;;5092779;28;20490;-52
2021/07/12 03:44:51;;;;;;;3.90;1.50;;;;;;;;;;5106842;28;20047;-51
2021/07/12 03:47:28;;;;;;;1.45;1.35;;;;;;;;;;5091190;28;20036;-52
2021/07/12 03:50:10;;;;;;;3.33;1.15;;;;;;;;;;5078314;28;20097;-51
2021/07/12 03:52:44;;;;;;;1.65;1.00;;;;;;;;;;5090279;28;20044;-51
2021/07/12 03:55:12;;;;;;;1.25;1.20;;;;;;;;;;5090533;28;20046;-52
2021/07/12 03:57:39;;;;;;;1.00;1.00;;;;;;;;;;5090255;28;20069;-51
2021/07/12 04:00:07;;;;;;;1.27;1.17;;;;;;;;;;5092432;28;20040;-52
2021/07/12 04:02:34;;;;;;;1.00;1.00;;;;;;;;;;5090131;28;20093;-51
2021/07/12 04:05:00;;;;;;;1.00;1.00;;;;;;;;;;5103884;28;20039;-49
2021/07/12 04:07:27;;;;;;;3.13;1.45;;;;;;;;;;5091251;28;20048;-52
2021/07/12 04:09:54;;;;;;;0.90;0.90;;;;;;;;;;5089008;28;20415;-51
2021/07/12 04:12:24;;;;;;;2.08;1.20;;;;;;;;;;5089852;28;20043;-52
2021/07/12 04:14:51;;;;;;;1.30;1.20;;;;;;;;;;5089600;28;20028;-51
2021/07/12 04:17:18;;;;;;;1.33;1.30;;;;;;;;;;5082432;28;20106;-49
2021/07/12 04:19:46;;;;;;;1.75;1.05;;;;;;;;;;5088925;28;20028;-52
2021/07/12 04:22:12;;;;;;;1.33;1.23;;;;;;;;;;5089198;28;20124;-51
2021/07/12 04:24:39;;;;;;;1.83;1.30;;;;;;;;;;5090804;28;20119;-52
2021/07/12 04:27:06;;;;;;;1.77;1.45;;;;;;;;;;5089709;28;20054;-51
2021/07/12 04:29:36;;;;;;;2.58;1.20;;;;;;;;;;5085752;28;20109;-52
2021/07/12 04:32:03;;;;;;;1.05;1.05;;;;;;;;;;5084031;28;20079;-53
2021/07/12 04:34:30;;;;;;;3.92;1.48;;;;;;;;;;5082771;28;20032;-52
2021/07/12 04:36:56;;;;;;;1.25;1.23;;;;;;;;;;5091087;28;20067;-51
2021/07/12 04:39:23;;;;;;;2.90;1.55;;;;;;;;;;5089662;28;20068;-51
2021/07/12 04:41:50;;;;;;;2.40;1.48;;;;;;;;;;5089551;28;20040;-52
2021/07/12 04:44:17;;;;;;;3.63;1.35;;;;;;;;;;5084219;28;20045;-53
2021/07/12 04:46:43;;;;;;;5.63;1.58;;;;;;;;;;5082811;28;20455;-53
2021/07/12 04:49:11;;;;;;;1.55;1.20;;;;;;;;;;5091508;28;20040;-52
2021/07/12 04:51:38;;;;;;;2.88;1.63;;;;;;;;;;5088648;28;20071;-51
2021/07/12 04:54:05;;;;;;;1.73;1.00;;;;;;;;;;5088662;28;20040;-52
2021/07/12 04:56:33;;;;;;;3.17;1.35;;;;;;;;;;5091441;28;21533;-52
2021/07/12 04:59:04;;;;;;;1.17;1.17;;;;;;;;;;5090098;28;20608;-51
2021/07/12 05:01:33;;;;;;;1.23;1.20;;;;;;;;;;5088579;28;20044;-52
2021/07/12 05:04:01;;;;;;;1.30;1.20;;;;;;;;;;5088331;28;20051;-52
2021/07/12 05:06:28;;;;;;;2.38;1.25;;;;;;;;;;5088957;28;20036;-53
2021/07/12 05:08:55;;;;;;;1.33;1.33;;;;;;;;;;5089948;28;20057;-52
2021/07/12 05:11:23;;;;;;;2.10;1.30;;;;;;;;;;5089650;28;20040;-51
2021/07/12 05:13:51;;;;;;;3.70;1.52;;;;;;;;;;5088607;28;20027;-51
2021/07/12 05:16:18;;;;;;;2.60;1.20;;;;;;;;;;5089893;28;20418;-51
2021/07/12 05:18:50;;;;;;;1.20;1.20;;;;;;;;;;5087603;28;20485;-53
2021/07/12 05:21:16;;;;;;;1.30;1.30;;;;;;;;;;5090820;28;20040;-53
2021/07/12 05:23:43;;;;;;;0.98;0.98;;;;;;;;;;5081991;28;20097;-52
2021/07/12 05:26:10;;;;;;;2.28;1.00;;;;;;;;;;5089680;28;20071;-52
2021/07/12 05:28:37;;;;;;;1.27;1.27;;;;;;;;;;5087849;28;20058;-52
2021/07/12 05:31:05;;;;;;;1.02;1.02;;;;;;;;;;5087215;28;20036;-55
2021/07/12 05:33:32;;;;;;;1.10;1.10;;;;;;;;;;5089968;28;20032;-55
2021/07/12 05:35:59;;;;;;;2.25;1.00;;;;;;;;;;5089394;28;20043;-55
2021/07/12 05:38:26;;;;;;;2.80;1.13;;;;;;;;;;5079258;28;20051;-55
2021/07/12 05:40:53;;;;;;;1.88;1.10;;;;;;;;;;5088567;28;20116;-55
2021/07/12 05:43:19;;;;;;;1.10;1.00;;;;;;;;;;5089163;28;20054;-55
2021/07/12 05:45:46;;;;;;;1.45;0.90;;;;;;;;;;5089021;28;20089;-55
2021/07/12 05:48:13;;;;;;;1.15;1.05;;;;;;;;;;5087613;28;20044;-55
2021/07/12 05:50:40;;;;;;;0.93;0.93;;;;;;;;;;5073534;28;20044;-55
2021/07/12 05:53:07;;;;;;;1.00;0.90;;;;;;;;;;5091141;28;20040;-55
2021/07/12 05:55:33;;;;;;;0.95;0.90;;;;;;;;;;5081545;28;20040;-55
2021/07/12 05:58:00;;;;;;;1.00;0.93;;;;;;;;;;5086156;28;20040;-54
2021/07/12 06:00:27;;;;;;;1.65;0.90;;;;;;;;;;5088329;28;20105;-54
2021/07/12 06:02:54;;;;;;;1.58;1.10;;;;;;;;;;5092279;28;20103;-54
2021/07/12 06:05:21;;;;;;;2.15;0.90;;;;;;;;;;5084410;28;20136;-54
2021/07/12 06:07:48;;;;;;;0.80;0.80;;;;;;;;;;5087852;28;20048;-55
2021/07/12 06:10:14;;;;;;;0.90;0.80;;;;;;;;;;5093299;28;20051;-54
2021/07/12 06:12:41;;;;;;;0.95;0.80;;;;;;;;;;5092260;28;20074;-55
2021/07/12 06:15:10;;;;;;;1.48;0.80;;;;;;;;;;5091535;28;20036;-55
2021/07/12 06:17:37;;;;;;;1.00;1.00;;;;;;;;;;5084275;28;20064;-55
2021/07/12 06:20:05;;;;;;;0.80;0.80;;;;;;;;;;5083876;28;20028;-54
2021/07/12 06:22:32;;;;;;;1.13;0.93;;;;;;;;;;5092748;28;20087;-55
2021/07/12 06:24:59;;;;;;;2.17;0.90;;;;;;;;;;5088770;28;20056;-55
2021/07/12 06:27:26;;;;;;;1.73;0.77;;;;;;;;;;5090685;28;20036;-54
2021/07/12 06:29:53;;;;;;;0.80;0.80;;;;;;;;;;5081094;28;20105;-54
2021/07/12 06:32:19;;;;;;;0.90;0.90;;;;;;;;;;5086035;28;20729;-55
2021/07/12 06:34:46;;;;;;;0.80;0.80;;;;;;;;;;5073659;28;20071;-55
2021/07/12 06:37:15;;;;;;;0.90;0.90;;;;;;;;;;5097686;28;20043;-55
2021/07/12 06:39:42;;;;;;;1.00;0.80;;;;;;;;;;5097266;28;20573;-55
2021/07/12 06:42:09;;;;;;;2.35;1.13;;;;;;;;;;5084062;28;20045;-55
2021/07/12 06:44:35;;;;;;;1.42;0.80;;;;;;;;;;5088086;28;20044;-55
2021/07/12 06:47:02;;;;;;;2.70;0.70;;;;;;;;;;5073965;28;20080;-55
2021/07/12 06:49:29;;;;;;;0.73;0.73;;;;;;;;;;5093246;28;20484;-55
2021/07/12 06:51:56;;;;;;;1.10;1.10;;;;;;;;;;5090994;28;20039;-55
2021/07/12 06:54:23;;;;;;;0.70;0.70;;;;;;;;;;5087708;28;20500;-54
2021/07/12 06:56:49;;;;;;;0.88;0.70;;;;;;;;;;5087290;28;20036;-54
2021/07/12 06:59:16;;;;;;;2.90;0.68;;;;;;;;;;5090443;28;20056;-55
2021/07/12 07:01:44;;;;;;;0.77;0.77;;;;;;;;;;5092927;28;20032;-55
2021/07/12 07:04:12;;;;;;;2.28;0.70;;;;;;;;;;5091702;28;20036;-54
2021/07/12 07:06:39;;;;;;;2.03;0.88;;;;;;;;;;5091255;28;20122;-55
2021/07/12 07:09:06;;;;;;;0.70;0.70;;;;;;;;;;5070242;28;20072;-55
2021/07/12 07:11:34;;;;;;;0.70;0.70;;;;;;;;;;5086095;28;21063;-55
2021/07/12 07:14:01;;;;;;;0.70;0.70;;;;;;;;;;5091718;28;20062;-55
2021/07/12 07:16:28;;;;;;;2.08;0.80;;;;;;;;;;5092301;28;20043;-54
2021/07/12 07:18:55;;;;;;;0.75;0.75;;;;;;;;;;5091682;28;20078;-56
2021/07/12 07:21:24;;;;;;;0.70;0.70;;;;;;;;;;5089709;28;20068;-55
2021/07/12 07:23:52;;;;;;;0.70;0.70;;;;;;;;;;5090434;28;20047;-55
2021/07/12 07:26:18;;;;;;;0.70;0.70;;;;;;;;;;5086204;28;20075;-55
2021/07/12 07:28:45;;;;;;;0.80;0.70;;;;;;;;;;5092808;28;20040;-55
2021/07/12 07:31:13;;;;;;;3.70;0.70;;;;;;;;;;5091494;28;20039;-55
2021/07/12 07:33:40;;;;;;;0.65;0.65;;;;;;;;;;5090172;28;20077;-54
2021/07/12 07:36:08;;;;;;;0.70;0.70;;;;;;;;;;5090445;28;20063;-55
2021/07/12 07:38:35;;;;;;;0.70;0.70;;;;;;;;;;5079132;28;20080;-55
2021/07/12 07:41:02;;;;;;;1.02;0.70;;;;;;;;;;5090766;28;20119;-55
2021/07/12 07:43:29;;;;;;;4.57;0.70;;;;;;;;;;5072745;28;20094;-55
2021/07/12 07:45:55;;;;;;;4.80;0.80;;;;;;;;;;5085683;28;20076;-55
2021/07/12 07:48:22;;;;;;;1.05;0.60;;;;;;;;;;5080278;28;20495;-55
2021/07/12 07:50:50;;;;;;;1.23;0.70;;;;;;;;;;5091328;28;20044;-55
2021/07/12 07:53:16;;;;;;;0.60;0.60;;;;;;;;;;5088943;28;20079;-55
2021/07/12 07:55:43;;;;;;;4.00;0.60;;;;;;;;;;5073570;28;20115;-55
2021/07/12 07:58:10;;;;;;;0.60;0.60;;;;;;;;;;5090427;28;20468;-55
2021/07/12 08:00:37;;;;;;;0.82;0.60;;;;;;;;;;5090122;28;20083;-55
2021/07/12 08:03:04;;;;;;;1.48;0.70;;;;;;;;;;5106312;28;20295;-55
2021/07/12 08:05:32;;;;;;;0.80;0.80;;;;;;;;;;5090680;28;20036;-54
2021/07/12 08:07:58;;;;;;;0.65;0.65;;;;;;;;;;5090449;28;20070;-55
2021/07/12 08:10:25;;;;;;;0.60;0.60;;;;;;;;;;5091412;28;20078;-55
2021/07/12 08:12:52;;;;;;;2.83;0.60;;;;;;;;;;5082721;28;20042;-55
2021/07/12 08:15:20;;;;;;;2.67;0.52;;;;;;;;;;5090851;28;20044;-55
2021/07/12 08:17:47;;;;;;;3.47;1.17;;;;;;;;;;5069059;28;20040;-55
2021/07/12 08:20:14;;;;;;;0.63;0.60;;;;;;;;;;5071398;28;20074;-55
2021/07/12 08:22:45;;;;;;;0.60;0.60;;;;;;;;;;5080269;28;20061;-56
2021/07/12 08:25:13;;;;;;;0.80;0.60;;;;;;;;;;5086872;28;20101;-55
2021/07/12 08:27:40;;;;;;;2.35;0.70;;;;;;;;;;5090516;28;20044;-55
2021/07/12 08:30:07;;;;;;;1.48;0.50;;;;;;;;;;5089709;28;20090;-56
2021/07/12 08:32:34;;;;;;;0.88;0.50;;;;;;;;;;5089243;28;20122;-56
2021/07/12 08:35:03;;;;;;;0.50;0.50;;;;;;;;;;5077779;28;20567;-55
2021/07/12 08:37:30;;;;;;;0.60;0.60;;;;;;;;;;5085296;28;20085;-55
2021/07/12 08:39:56;;;;;;;1.83;0.60;;;;;;;;;;5076723;28;20471;-55
2021/07/12 08:42:23;;;;;;;1.67;0.60;;;;;;;;;;5090366;28;20024;-55
2021/07/12 08:44:50;;;;;;;1.20;0.50;;;;;;;;;;5088461;28;20118;-55
2021/07/12 08:47:17;;;;;;;0.63;0.50;;;;;;;;;;5091119;28;20039;-55
2021/07/12 08:49:44;;;;;;;0.50;0.50;;;;;;;;;;5088910;28;20041;-55
2021/07/12 08:52:10;;;;;;;1.50;0.55;;;;;;;;;;5069205;28;20103;-55
2021/07/12 08:54:37;;;;;;;1.52;0.60;;;;;;;;;;5097267;28;20082;-55
2021/07/12 08:57:04;;;;;;;0.60;0.60;;;;;;;;;;5091118;28;20040;-55
2021/07/12 08:59:40;;;;;;;0.70;0.50;;;;;;;;;;5077885;28;20423;-55
2021/07/12 09:02:08;;;;;;;0.40;0.40;;;;;;;;;;5086500;28;20127;-56
2021/07/12 09:04:36;;;;;;;0.50;0.50;;;;;;;;;;5087302;28;20071;-56
2021/07/12 09:07:05;;;;;;;0.50;0.50;;;;;;;;;;5092169;28;20040;-55
2021/07/12 09:09:31;;;;;;;0.40;0.40;;;;;;;;;;5087080;28;20047;-56
2021/07/12 09:12:15;;;;;;;0.73;0.50;;;;;;;;;;5090387;28;20095;-56
2021/07/12 09:15:03;;;;;;;0.90;0.47;;;;;;;;;;5091363;28;20032;-55
2021/07/12 09:17:31;;;;;;;0.50;0.50;;;;;;;;;;5088496;28;20086;-56
2021/07/12 09:20:02;;;;;;;1.25;0.50;;;;;;;;;;5089293;28;20416;-56
2021/07/12 09:22:33;;;;;;;0.93;0.70;;;;;;;;;;5036095;28;20109;-56
2021/07/12 09:25:02;;;;;;;1.80;0.50;;;;;;;;;;5087971;28;20048;-56
2021/07/12 09:27:29;;;;;;;0.82;0.50;;;;;;;;;;5084431;28;20028;-56
2021/07/12 09:29:58;;;;;;;2.25;0.50;;;;;;;;;;5089128;28;20516;-56
2021/07/12 09:32:31;;;;;;;0.50;0.50;;;;;;;;;;5092693;28;20094;-56
2021/07/12 09:35:01;;;;;;;0.60;0.60;;;;;;;;;;5093453;28;20040;-56
2021/07/12 09:37:29;;;;;;;1.50;0.40;;;;;;;;;;5092145;28;20047;-56
2021/07/12 09:39:57;;;;;;;0.80;0.40;;;;;;;;;;5092689;28;20475;-56
2021/07/12 09:42:25;;;;;;;0.50;0.50;;;;;;;;;;5091922;28;20132;-56
2021/07/12 09:44:53;;;;;;;1.05;0.40;;;;;;;;;;5088657;28;20040;-56
2021/07/12 09:47:23;;;;;;;0.57;0.40;;;;;;;;;;5084818;28;20377;-56
2021/07/12 09:49:51;;;;;;;2.78;0.40;;;;;;;;;;5082318;28;20071;-56
2021/07/12 09:52:19;;;;;;;0.57;0.40;;;;;;;;;;5096623;28;20031;-55
2021/07/12 09:54:47;;;;;;;2.65;0.63;;;;;;;;;;5089296;28;20571;-57
2021/07/12 09:57:19;;;;;;;1.15;0.40;;;;;;;;;;5094275;28;20056;-56
2021/07/12 09:59:55;;;;;;;1.43;0.50;;;;;;;;;;5083481;28;20488;-56
2021/07/12 10:02:23;;;;;;;0.82;0.40;;;;;;;;;;5067548;28;20101;-56
2021/07/12 10:04:51;;;;;;;0.40;0.40;;;;;;;;;;5089117;28;20032;-56
2021/07/12 10:07:17;;;;;;;0.77;0.40;;;;;;;;;;5089649;28;20432;-56
2021/07/12 10:09:44;;;;;;;1.17;0.40;;;;;;;;;;5092462;28;20123;-56
2021/07/12 10:12:11;;;;;;;1.52;0.40;;;;;;;;;;5092416;28;20047;-56
2021/07/12 10:14:39;;;;;;;0.45;0.40;;;;;;;;;;5092409;28;20083;-56
2021/07/12 10:17:07;;;;;;;0.30;0.30;;;;;;;;;;5090864;28;20497;-56
2021/07/12 10:19:34;;;;;;;0.52;0.40;;;;;;;;;;5090061;28;20024;-56
2021/07/12 10:22:01;;;;;;;0.40;0.40;;;;;;;;;;5087264;28;20106;-56
2021/07/12 10:24:34;;;;;;;1.13;0.30;;;;;;;;;;5098702;28;20458;-56
2021/07/12 10:27:02;;;;;;;0.60;0.40;;;;;;;;;;5089546;28;20121;-56
2021/07/12 10:29:30;;;;;;;1.35;0.30;;;;;;;;;;5092088;28;20044;-55
2021/07/12 10:32:07;;;;;;;0.93;0.40;;;;;;;;;;5090942;28;20044;-56
2021/07/12 10:34:36;;;;;;;0.30;0.30;;;;;;;;;;5077366;28;20040;-56
2021/07/12 10:37:02;;;;;;;0.38;0.30;;;;;;;;;;5092268;28;20098;-56
2021/07/12 10:39:48;;;;;;;1.65;0.30;;;;;;;;;;5087074;28;20093;-56
2021/07/12 10:42:35;;;;;;;0.52;0.30;;;;;;;;;;5087246;28;20043;-56
2021/07/12 10:45:21;;;;;;;0.30;0.30;;;;;;;;;;5083325;28;20516;-55
2021/07/12 10:47:50;;;;;;;0.80;0.30;;;;;;;;;;5085909;28;20072;-57
2021/07/12 10:50:39;;;;;;;1.30;0.40;;;;;;;;;;5091897;28;20032;-56
2021/07/12 10:53:15;;;;;;;0.30;0.30;;;;;;;;;;5092659;28;20438;-56
2021/07/12 10:56:05;;;;;;;0.35;0.30;;;;;;;;;;5082423;28;20119;-56
2021/07/12 10:58:31;;;;;;;1.10;0.30;;;;;;;;;;5077388;28;20055;-56
2021/07/12 11:01:00;;;;;;;0.65;0.30;;;;;;;;;;5082940;28;20080;-56
2021/07/12 11:03:36;;;;;;;2.13;1.30;;;;;;;;;;5082675;28;20123;-56
2021/07/12 11:06:27;;;;;;;0.47;0.30;;;;;;;;;;5093291;28;20090;-56
2021/07/12 11:08:54;;;;;;;1.15;0.30;;;;;;;;;;5083915;28;20081;-56
2021/07/12 11:11:22;;;;;;;0.30;0.30;;;;;;;;;;5090258;28;20044;-56
2021/07/12 11:13:58;;;;;;;0.98;0.30;;;;;;;;;;5091720;28;20051;-56
2021/07/12 11:16:26;;;;;;;0.73;0.30;;;;;;;;;;5091057;28;20066;-56
2021/07/12 11:18:53;;;;;;;0.30;0.30;;;;;;;;;;5084706;28;20055;-56
2021/07/12 11:21:34;;;;;;;0.35;0.30;;;;;;;;;;5092810;28;20067;-56
2021/07/12 11:24:00;;;;;;;2.45;0.40;;;;;;;;;;5087473;28;20040;-56
2021/07/12 11:26:28;;;;;;;0.30;0.30;;;;;;;;;;5079253;28;20043;-56
2021/07/12 11:28:56;;;;;;;0.73;0.30;;;;;;;;;;5092270;28;20059;-56
2021/07/12 11:31:52;;;;;;;0.98;0.30;;;;;;;;;;5091095;28;20494;-56
2021/07/12 11:34:24;;;;;;;0.30;0.30;;;;;;;;;;4996406;28;20055;-56
2021/07/12 11:37:00;;;;;;;0.63;0.30;;;;;;;;;;5008187;28;20057;-56
2021/07/12 11:39:41;;;;;;;1.67;0.30;;;;;;;;;;5002391;28;21793;-52
2021/07/12 11:42:20;;;;;;;2.05;0.40;;;;;;;;;;5007242;28;20045;-51
2021/07/12 11:44:47;;;;;;;1.35;0.30;;;;;;;;;;5005647;28;20085;-52
2021/07/12 11:47:14;;;;;;;0.40;0.30;;;;;;;;;;5008906;28;20080;-53
2021/07/12 11:49:47;;;;;;;2.28;0.30;;;;;;;;;;5008510;28;20053;-52
2021/07/12 11:52:14;;;;;;;4.95;0.30;;;;;;;;;;5008568;28;20136;-52
2021/07/12 11:54:40;;;;;;;0.68;0.30;;;;;;;;;;5008075;28;20088;-52
2021/07/12 11:57:11;;;;;;;3.60;0.40;;;;;;;;;;5007690;28;20077;-52
2021/07/12 11:59:38;;;;;;;0.40;0.40;;;;;;;;;;5010025;28;20042;-53
2021/07/12 12:02:09;;;;;;;1.20;0.30;;;;;;;;;;5008558;28;20080;-51
2021/07/12 12:04:44;;;;;;;0.50;0.40;;;;;;;;;;5007763;28;20054;-50
2021/07/12 12:07:20;;;;;;;0.40;0.30;;;;;;;;;;5009436;28;20046;-52
2021/07/12 12:09:55;;;;;;;0.43;0.40;;;;;;;;;;5002714;28;20462;-53
2021/07/12 12:12:22;;;;;;;0.30;0.30;;;;;;;;;;5084009;28;20844;-51
2021/07/12 12:14:49;;;;;;;0.55;0.30;;;;;;;;;;5080927;28;20115;-52
2021/07/12 12:17:16;;;;;;;7.38;2.20;;;;;;;;;;5091163;28;20131;-52
2021/07/12 12:19:43;;;;;;;1.30;0.30;;;;;;;;;;5086709;28;20089;-52
2021/07/12 12:22:23;;;;;;;0.82;0.30;;;;;;;;;;5082763;28;20044;-52
2021/07/12 12:24:56;;;;;;;0.45;0.30;;;;;;;;;;5087579;28;20460;-53
2021/07/12 12:27:23;;;;;;;0.50;0.50;;;;;;;;;;5083412;28;20443;-52
2021/07/12 12:29:50;;;;;;;0.30;0.30;;;;;;;;;;5081715;28;20044;-52
2021/07/12 12:32:30;;;;;;;0.30;0.30;;;;;;;;;;5079615;28;20040;-52
2021/07/12 12:35:02;;;;;;;1.67;0.30;;;;;;;;;;5088779;28;20403;-53
2021/07/12 12:37:35;;;;;;;0.73;0.40;;;;;;;;;;5090718;28;20664;-52
2021/07/12 12:40:19;;;;;;;0.75;0.30;;;;;;;;;;5070214;28;20046;-52
2021/07/12 12:42:47;;;;;;;0.85;0.38;;;;;;;;;;5091124;28;20473;-54
2021/07/12 12:45:34;;;;;;;1.90;0.30;;;;;;;;;;5083625;28;20499;-44
2021/07/12 12:48:01;;;;;;;0.30;0.30;;;;;;;;;;5080341;28;20040;-45
2021/07/12 12:50:27;;;;;;;2.33;0.40;;;;;;;;;;5089920;28;20142;-45
2021/07/12 12:53:08;;;;;;;0.60;0.30;;;;;;;;;;5087469;28;20089;-43
2021/07/12 12:55:35;;;;;;;0.68;0.30;;;;;;;;;;5080103;28;20040;-45
2021/07/12 12:58:06;;;;;;;0.30;0.30;;;;;;;;;;5089380;28;20059;-45
2021/07/12 13:00:32;;;;;;;1.17;0.30;;;;;;;;;;5089742;28;20044;-43
2021/07/12 13:02:59;;;;;;;2.20;0.30;;;;;;;;;;5073805;28;20097;-46
2021/07/12 13:05:26;;;;;;;0.50;0.40;;;;;;;;;;5086086;28;20072;-43
2021/07/12 13:07:54;;;;;;;0.40;0.40;;;;;;;;;;5075985;28;20498;-44
2021/07/12 13:10:22;;;;;;;0.30;0.30;;;;;;;;;;5080252;28;20086;-43
2021/07/12 13:12:53;;;;;;;0.30;0.30;;;;;;;;;;5082771;28;20127;-45
2021/07/12 13:15:21;;;;;;;3.25;0.40;;;;;;;;;;5087322;28;20071;-44
2021/07/12 13:17:50;;;;;;;0.70;0.38;;;;;;;;;;5082826;28;20499;-43
2021/07/12 13:20:22;;;;;;;1.20;0.22;;;;;;;;;;5081257;28;20127;-43
2021/07/12 13:22:51;;;;;;;1.45;0.30;;;;;;;;;;5071854;28;20036;-45
2021/07/12 13:25:19;;;;;;;2.92;0.38;;;;;;;;;;5087084;28;20461;-45
2021/07/12 13:27:54;;;;;;;0.20;0.20;;;;;;;;;;5082686;28;20097;-44
2021/07/12 13:30:22;;;;;;;0.40;0.30;;;;;;;;;;5089289;28;20040;-44
2021/07/12 13:32:49;;;;;;;4.00;0.30;;;;;;;;;;5089137;28;20048;-44
2021/07/12 13:35:18;;;;;;;0.28;0.28;;;;;;;;;;5088565;28;20400;-44
2021/07/12 13:37:48;;;;;;;0.30;0.30;;;;;;;;;;5087774;28;20028;-43
2021/07/12 13:40:15;;;;;;;1.58;0.30;;;;;;;;;;5088772;28;20070;-43
2021/07/12 13:42:42;;;;;;;1.13;0.30;;;;;;;;;;5084941;28;20068;-43
2021/07/12 13:45:12;;;;;;;3.15;0.30;;;;;;;;;;5054460;28;20094;-43
2021/07/12 13:47:39;;;;;;;1.48;0.40;;;;;;;;;;5071969;28;20037;-43
2021/07/12 13:50:07;;;;;;;0.85;0.40;;;;;;;;;;5089165;28;20040;-44
2021/07/12 13:52:33;;;;;;;1.60;0.30;;;;;;;;;;5087559;28;20050;-46
2021/07/12 13:55:01;;;;;;;0.20;0.20;;;;;;;;;;5077184;28;20032;-43
2021/07/12 13:57:28;;;;;;;0.35;0.22;;;;;;;;;;5082939;28;20093;-43
2021/07/12 13:59:54;;;;;;;0.30;0.30;;;;;;;;;;5088533;28;20415;-48
2021/07/12 14:02:21;;;;;;;0.45;0.20;;;;;;;;;;5089190;28;20384;-43
2021/07/12 14:04:48;;;;;;;3.50;0.20;;;;;;;;;;5087630;28;20452;-43
2021/07/12 14:07:15;;;;;;;2.40;0.30;;;;;;;;;;5075403;28;20662;-44
2021/07/12 14:09:43;;;;;;;1.05;0.25;;;;;;;;;;5086027;28;20044;-45
2021/07/12 14:12:11;;;;;;;0.30;0.30;;;;;;;;;;5080520;28;20086;-44
2021/07/12 14:14:38;;;;;;;0.30;0.30;;;;;;;;;;5095082;28;20071;-43
2021/07/12 14:17:05;;;;;;;2.45;0.40;;;;;;;;;;5091663;28;20165;-44
2021/07/12 14:19:32;;;;;;;0.30;0.30;;;;;;;;;;5084131;28;20093;-44
2021/07/12 14:21:59;;;;;;;0.52;0.30;;;;;;;;;;5089642;28;20085;-44
2021/07/12 14:24:26;;;;;;;2.83;0.30;;;;;;;;;;5090713;28;20036;-45
2021/07/12 14:26:52;;;;;;;2.45;0.30;;;;;;;;;;5084129;28;20107;-45
2021/07/12 14:29:19;;;;;;;0.20;0.20;;;;;;;;;;5084359;28;20089;-44
2021/07/12 14:31:46;;;;;;;7.03;0.30;;;;;;;;;;5092958;28;20086;-46
2021/07/12 14:34:12;;;;;;;0.30;0.22;;;;;;;;;;5088229;28;20042;-44
2021/07/12 14:36:42;;;;;;;2.05;0.22;;;;;;;;;;5068783;28;20047;-44
2021/07/12 14:39:09;;;;;;;0.30;0.30;;;;;;;;;;5082546;28;20056;-43
2021/07/12 14:41:37;;;;;;;0.30;0.30;;;;;;;;;;5093131;28;20075;-45
2021/07/12 14:44:04;;;;;;;1.27;0.30;;;;;;;;;;5092006;28;20052;-44
2021/07/12 14:46:31;;;;;;;0.50;0.22;;;;;;;;;;5086288;28;20041;-44
2021/07/12 14:48:58;;;;;;;2.58;0.30;;;;;;;;;;5077638;28;20403;-47
2021/07/12 14:51:25;;;;;;;1.08;0.20;;;;;;;;;;5080939;28;20059;-47
2021/07/12 14:53:52;;;;;;;0.43;0.32;;;;;;;;;;5085985;28;20063;-44
2021/07/12 14:56:20;;;;;;;1.17;0.30;;;;;;;;;;5085007;28;20037;-48